Terminal Aerodrome Forecast
Issued by NWS Kansas City/Pleasant Hill, MO

Home | Current Version | Previous Version | Text Only | Print | Product List | Glossary On
Versions: 1 2 3 4 5 6 7 8 9 10 11 12 13 14 15 16 17 18 19 20
000
FTUS43 KEAX 241731
TAFMCI
TAF
KMCI 241731Z 2418/2518 12014KT 4SM -DZ BR OVC004
      TEMPO 2418/2421 1/2SM RA FG
     FM242100 VRB06KT 4SM -RA BR OVC003
     FM250300 27011KT 5SM BR SCT003
     FM251000 VRB06KT 3SM BR SCT002
     FM251400 22007KT P6SM BKN080=

USA.gov is the U.S. government's official web portal to all federal, state and local government web resources and services.